<?xml version="1.0" encoding="UTF-8" standalone="no" ?>
<gpx xmlns="http://www.topografix.com/GPX/1/1" xmlns:xsi="http://www.w3.org/2001/XMLSchema-instance" xsi:schemaLocation="http://www.topografix.com/GPX/1/1 http://www.topografix.com/GPX/1/1/gpx.xsd" version="1.1" creator="VisuGPX - https://www.visugpx.com">
  <metadata>
    <name>Varades_IngrandesChamptoce_10-14km</name>
    <desc><![CDATA[gnerando idor:14413028_14413041]]></desc>
  </metadata>
  <trk>
    <name><![CDATA[Varades_Ingrandes_9.8km-14413028]]></name>
    <extensions>
      <line xmlns="http://www.topografix.com/GPX/gpx_style/0/2">
        <color>0000FF</color>
        <width>4</width>
      </line>
    </extensions>
    <trkseg>
      <trkpt lat="47.37479" lon="-1.0206">
        <ele>11</ele>
        <time>2023-11-14T05:53:43Z</time>
      </trkpt>
      <trkpt lat="47.37481" lon="-1.02335">
        <ele>10</ele>
        <time>2023-11-14T05:57:52Z</time>
      </trkpt>
      <trkpt lat="47.37371" lon="-1.0233">
        <ele>11</ele>
        <time>2023-11-14T06:00:18Z</time>
      </trkpt>
      <trkpt lat="47.37246" lon="-1.02321">
        <ele>9</ele>
        <time>2023-11-14T06:03:05Z</time>
      </trkpt>
      <trkpt lat="47.37147" lon="-1.02231">
        <ele>11</ele>
        <time>2023-11-14T06:05:41Z</time>
      </trkpt>
      <trkpt lat="47.37083" lon="-1.01931">
        <ele>11</ele>
        <time>2023-11-14T06:10:25Z</time>
      </trkpt>
      <trkpt lat="47.37138" lon="-1.01661">
        <ele>11</ele>
        <time>2023-11-14T06:14:40Z</time>
      </trkpt>
      <trkpt lat="47.37458" lon="-1.00244">
        <ele>8</ele>
        <time>2023-11-14T06:37:10Z</time>
      </trkpt>
      <trkpt lat="47.37708" lon="-0.99596">
        <ele>11</ele>
        <time>2023-11-14T06:48:23Z</time>
      </trkpt>
      <trkpt lat="47.37731" lon="-0.98828">
        <ele>10</ele>
        <time>2023-11-14T06:59:58Z</time>
      </trkpt>
      <trkpt lat="47.37691" lon="-0.9824">
        <ele>9</ele>
        <time>2023-11-14T07:08:52Z</time>
      </trkpt>
      <trkpt lat="47.37949" lon="-0.96382">
        <ele>14</ele>
        <time>2023-11-14T07:37:26Z</time>
      </trkpt>
      <trkpt lat="47.38004" lon="-0.96386">
        <ele>14</ele>
        <time>2023-11-14T07:38:40Z</time>
      </trkpt>
      <trkpt lat="47.38034" lon="-0.96185">
        <ele>13</ele>
        <time>2023-11-14T07:41:46Z</time>
      </trkpt>
      <trkpt lat="47.3801" lon="-0.96146">
        <ele>13</ele>
        <time>2023-11-14T07:42:33Z</time>
      </trkpt>
      <trkpt lat="47.38048" lon="-0.95996">
        <ele>13</ele>
        <time>2023-11-14T07:44:58Z</time>
      </trkpt>
      <trkpt lat="47.38333" lon="-0.95397">
        <ele>10</ele>
        <time>2023-11-14T07:55:59Z</time>
      </trkpt>
      <trkpt lat="47.38673" lon="-0.94961">
        <ele>11</ele>
        <time>2023-11-14T08:06:00Z</time>
      </trkpt>
      <trkpt lat="47.39295" lon="-0.94137">
        <ele>14</ele>
        <time>2023-11-14T08:24:35Z</time>
      </trkpt>
      <trkpt lat="47.39524" lon="-0.9388">
        <ele>12</ele>
        <time>2023-11-14T08:30:59Z</time>
      </trkpt>
      <trkpt lat="47.39934" lon="-0.93052">
        <ele>15</ele>
        <time>2023-11-14T08:46:26Z</time>
      </trkpt>
      <trkpt lat="47.40163" lon="-0.92279">
        <ele>17</ele>
        <time>2023-11-14T08:59:08Z</time>
      </trkpt>
      <trkpt lat="47.40303" lon="-0.9206">
        <ele>16</ele>
        <time>2023-11-14T09:03:40Z</time>
      </trkpt>
      <trkpt lat="47.40408" lon="-0.92008">
        <ele>16</ele>
        <time>2023-11-14T09:06:08Z</time>
      </trkpt>
      <trkpt lat="47.40499" lon="-0.92005">
        <ele>18</ele>
        <time>2023-11-14T09:08:09Z</time>
      </trkpt>
      <trkpt lat="47.40569" lon="-0.92065">
        <ele>19</ele>
        <time>2023-11-14T09:09:57Z</time>
      </trkpt>
    </trkseg>
  </trk>
  <trk>
    <name><![CDATA[Varades_Champtoce_14.4km-14413041]]></name>
    <extensions>
      <line xmlns="http://www.topografix.com/GPX/gpx_style/0/2">
        <color>00FF00</color>
        <width>4</width>
      </line>
    </extensions>
    <trkseg>
      <trkpt lat="47.37479" lon="-1.0206">
        <ele>11</ele>
        <time>2023-11-14T05:53:35Z</time>
      </trkpt>
      <trkpt lat="47.37481" lon="-1.02335">
        <ele>10</ele>
        <time>2023-11-14T05:57:44Z</time>
      </trkpt>
      <trkpt lat="47.37371" lon="-1.0233">
        <ele>11</ele>
        <time>2023-11-14T06:00:10Z</time>
      </trkpt>
      <trkpt lat="47.37246" lon="-1.02321">
        <ele>9</ele>
        <time>2023-11-14T06:02:57Z</time>
      </trkpt>
      <trkpt lat="47.37147" lon="-1.02231">
        <ele>11</ele>
        <time>2023-11-14T06:05:33Z</time>
      </trkpt>
      <trkpt lat="47.37083" lon="-1.01931">
        <ele>11</ele>
        <time>2023-11-14T06:10:17Z</time>
      </trkpt>
      <trkpt lat="47.37138" lon="-1.01661">
        <ele>11</ele>
        <time>2023-11-14T06:14:32Z</time>
      </trkpt>
      <trkpt lat="47.37458" lon="-1.00244">
        <ele>8</ele>
        <time>2023-11-14T06:37:02Z</time>
      </trkpt>
      <trkpt lat="47.37708" lon="-0.99596">
        <ele>11</ele>
        <time>2023-11-14T06:48:15Z</time>
      </trkpt>
      <trkpt lat="47.37731" lon="-0.98828">
        <ele>10</ele>
        <time>2023-11-14T06:59:50Z</time>
      </trkpt>
      <trkpt lat="47.37691" lon="-0.9824">
        <ele>9</ele>
        <time>2023-11-14T07:08:44Z</time>
      </trkpt>
      <trkpt lat="47.37949" lon="-0.96382">
        <ele>14</ele>
        <time>2023-11-14T07:37:18Z</time>
      </trkpt>
      <trkpt lat="47.38004" lon="-0.96386">
        <ele>14</ele>
        <time>2023-11-14T07:38:32Z</time>
      </trkpt>
      <trkpt lat="47.38034" lon="-0.96185">
        <ele>13</ele>
        <time>2023-11-14T07:41:38Z</time>
      </trkpt>
      <trkpt lat="47.3801" lon="-0.96146">
        <ele>13</ele>
        <time>2023-11-14T07:42:25Z</time>
      </trkpt>
      <trkpt lat="47.38048" lon="-0.95996">
        <ele>13</ele>
        <time>2023-11-14T07:44:50Z</time>
      </trkpt>
      <trkpt lat="47.38333" lon="-0.95397">
        <ele>10</ele>
        <time>2023-11-14T07:55:51Z</time>
      </trkpt>
      <trkpt lat="47.38673" lon="-0.94961">
        <ele>11</ele>
        <time>2023-11-14T08:05:52Z</time>
      </trkpt>
      <trkpt lat="47.39295" lon="-0.94137">
        <ele>14</ele>
        <time>2023-11-14T08:24:27Z</time>
      </trkpt>
      <trkpt lat="47.39524" lon="-0.9388">
        <ele>12</ele>
        <time>2023-11-14T08:30:51Z</time>
      </trkpt>
      <trkpt lat="47.39934" lon="-0.93052">
        <ele>15</ele>
        <time>2023-11-14T08:46:18Z</time>
      </trkpt>
      <trkpt lat="47.40163" lon="-0.92279">
        <ele>17</ele>
        <time>2023-11-14T08:59:00Z</time>
      </trkpt>
      <trkpt lat="47.40303" lon="-0.9206">
        <ele>16</ele>
        <time>2023-11-14T09:03:32Z</time>
      </trkpt>
      <trkpt lat="47.40408" lon="-0.92008">
        <ele>16</ele>
        <time>2023-11-14T09:06:00Z</time>
      </trkpt>
      <trkpt lat="47.40499" lon="-0.92005">
        <ele>18</ele>
        <time>2023-11-14T09:08:01Z</time>
      </trkpt>
      <trkpt lat="47.40642" lon="-0.91862">
        <ele>17</ele>
        <time>2023-11-14T09:11:52Z</time>
      </trkpt>
      <trkpt lat="47.40782" lon="-0.91597">
        <ele>15</ele>
        <time>2023-11-14T09:16:55Z</time>
      </trkpt>
      <trkpt lat="47.41007" lon="-0.90929">
        <ele>12</ele>
        <time>2023-11-14T09:28:09Z</time>
      </trkpt>
      <trkpt lat="47.41072" lon="-0.90704">
        <ele>13</ele>
        <time>2023-11-14T09:31:50Z</time>
      </trkpt>
      <trkpt lat="47.41297" lon="-0.90694">
        <ele>29</ele>
        <time>2023-11-14T09:36:50Z</time>
      </trkpt>
      <trkpt lat="47.41355" lon="-0.90592">
        <ele>33</ele>
        <time>2023-11-14T09:38:51Z</time>
      </trkpt>
      <trkpt lat="47.41328" lon="-0.90306">
        <ele>30</ele>
        <time>2023-11-14T09:43:12Z</time>
      </trkpt>
      <trkpt lat="47.41273" lon="-0.90265">
        <ele>28</ele>
        <time>2023-11-14T09:44:34Z</time>
      </trkpt>
      <trkpt lat="47.41307" lon="-0.9001">
        <ele>27</ele>
        <time>2023-11-14T09:48:28Z</time>
      </trkpt>
      <trkpt lat="47.41162" lon="-0.89969">
        <ele>21</ele>
        <time>2023-11-14T09:51:45Z</time>
      </trkpt>
      <trkpt lat="47.41169" lon="-0.88663">
        <ele>13</ele>
        <time>2023-11-14T10:11:25Z</time>
      </trkpt>
      <trkpt lat="47.41114" lon="-0.88647">
        <ele>12</ele>
        <time>2023-11-14T10:12:40Z</time>
      </trkpt>
      <trkpt lat="47.40976" lon="-0.87088">
        <ele>11</ele>
        <time>2023-11-14T10:36:20Z</time>
      </trkpt>
      <trkpt lat="47.40945" lon="-0.86896">
        <ele>12</ele>
        <time>2023-11-14T10:39:18Z</time>
      </trkpt>
      <trkpt lat="47.41038" lon="-0.86888">
        <ele>17</ele>
        <time>2023-11-14T10:41:22Z</time>
      </trkpt>
    </trkseg>
  </trk>
</gpx>